sensor_id;sensor_type;location;lat;lon;timestamp;pressure;altitude;pressure_sealevel;temperature;humidity
70745;BME280;59284;31.390;34.904;2022-11-21T00:00:49;95142.69;;;21.32;100.00
70745;BME280;59284;31.390;34.904;2022-11-21T00:03:15;95147.13;;;21.09;100.00
70745;BME280;59284;31.390;34.904;2022-11-21T00:05:43;95142.66;;;21.13;100.00
70745;BME280;59284;31.390;34.904;2022-11-21T00:08:13;95148.56;;;21.25;100.00
70745;BME280;59284;31.390;34.904;2022-11-21T00:10:39;95155.47;;;20.95;100.00
70745;BME280;59284;31.390;34.904;2022-11-21T00:13:06;95149.03;;;21.12;100.00
70745;BME280;59284;31.390;34.904;2022-11-21T00:15:33;95157.09;;;20.84;100.00
70745;BME280;59284;31.390;34.904;2022-11-21T00:18:03;95152.19;;;21.17;100.00
70745;BME280;59284;31.390;34.904;2022-11-21T00:20:29;95149.88;;;20.81;100.00
70745;BME280;59284;31.390;34.904;2022-11-21T00:22:55;95147.56;;;20.79;100.00
70745;BME280;59284;31.390;34.904;2022-11-21T00:25:21;95150.94;;;20.95;100.00
70745;BME280;59284;31.390;34.904;2022-11-21T00:27:47;95153.56;;;20.76;100.00
70745;BME280;59284;31.390;34.904;2022-11-21T00:30:13;95143.13;;;20.99;100.00
70745;BME280;59284;31.390;34.904;2022-11-21T00:32:43;95143.84;;;21.15;100.00
70745;BME280;59284;31.390;34.904;2022-11-21T00:35:09;95145.59;;;20.92;100.00
70745;BME280;59284;31.390;34.904;2022-11-21T00:37:36;95146.00;;;20.94;100.00
70745;BME280;59284;31.390;34.904;2022-11-21T00:40:02;95134.38;;;20.79;100.00
70745;BME280;59284;31.390;34.904;2022-11-21T00:42:28;95155.16;;;20.81;100.00
70745;BME280;59284;31.390;34.904;2022-11-21T00:44:54;95143.06;;;20.80;100.00
70745;BME280;59284;31.390;34.904;2022-11-21T00:47:19;95157.41;;;20.98;100.00
70745;BME280;59284;31.390;34.904;2022-11-21T00:49:45;95139.59;;;20.76;100.00
70745;BME280;59284;31.390;34.904;2022-11-21T00:52:11;95141.19;;;20.80;100.00
70745;BME280;59284;31.390;34.904;2022-11-21T00:54:43;95139.00;;;21.36;100.00
70745;BME280;59284;31.390;34.904;2022-11-21T00:57:08;95135.09;;;20.76;100.00
70745;BME280;59284;31.390;34.904;2022-11-21T00:59:34;95140.78;;;20.78;100.00
70745;BME280;59284;31.390;34.904;2022-11-21T01:02:00;95140.22;;;20.88;100.00
70745;BME280;59284;31.390;34.904;2022-11-21T01:04:30;95142.31;;;21.14;100.00
70745;BME280;59284;31.390;34.904;2022-11-21T01:06:56;95150.25;;;20.64;100.00
70745;BME280;59284;31.390;34.904;2022-11-21T01:09:22;95139.19;;;20.74;100.00
70745;BME280;59284;31.390;34.904;2022-11-21T01:11:48;95141.72;;;20.70;100.00
70745;BME280;59284;31.390;34.904;2022-11-21T01:14:13;95147.50;;;20.76;100.00
70745;BME280;59284;31.390;34.904;2022-11-21T01:16:39;95139.06;;;20.51;100.00
70745;BME280;59284;31.390;34.904;2022-11-21T01:19:05;95131.88;;;20.52;100.00
70745;BME280;59284;31.390;34.904;2022-11-21T01:21:31;95146.69;;;20.72;100.00
70745;BME280;59284;31.390;34.904;2022-11-21T01:24:00;95140.66;;;21.06;100.00
70745;BME280;59284;31.390;34.904;2022-11-21T01:26:28;95143.16;;;20.83;100.00
70745;BME280;59284;31.390;34.904;2022-11-21T01:28:56;95138.22;;;20.82;100.00
70745;BME280;59284;31.390;34.904;2022-11-21T01:31:24;95138.22;;;20.82;100.00
70745;BME280;59284;31.390;34.904;2022-11-21T01:33:50;95133.19;;;20.77;100.00
70745;BME280;59284;31.390;34.904;2022-11-21T01:36:20;95140.59;;;20.87;100.00
70745;BME280;59284;31.390;34.904;2022-11-21T01:38:48;95131.91;;;20.86;100.00
70745;BME280;59284;31.390;34.904;2022-11-21T01:41:17;95125.19;;;20.89;100.00
70745;BME280;59284;31.390;34.904;2022-11-21T01:43:44;95130.13;;;20.40;100.00
70745;BME280;59284;31.390;34.904;2022-11-21T01:46:14;95126.53;;;20.98;100.00
70745;BME280;59284;31.390;34.904;2022-11-21T01:48:51;95126.72;;;20.90;100.00
70745;BME280;59284;31.390;34.904;2022-11-21T01:51:32;95132.13;;;21.13;100.00
70745;BME280;59284;31.390;34.904;2022-11-21T02:02:14;95133.13;;;20.73;100.00
70745;BME280;59284;31.390;34.904;2022-11-21T02:04:42;95137.53;;;20.85;100.00
70745;BME280;59284;31.390;34.904;2022-11-21T02:07:11;95142.19;;;20.91;100.00
70745;BME280;59284;31.390;34.904;2022-11-21T02:09:40;95138.47;;;20.77;100.00
70745;BME280;59284;31.390;34.904;2022-11-21T02:12:12;95143.44;;;20.78;100.00
70745;BME280;59284;31.390;34.904;2022-11-21T02:14:41;95139.03;;;20.67;100.00
70745;BME280;59284;31.390;34.904;2022-11-21T02:17:08;95146.41;;;20.61;100.00
70745;BME280;59284;31.390;34.904;2022-11-21T02:19:43;95146.84;;;20.79;100.00
70745;BME280;59284;31.390;34.904;2022-11-21T02:22:33;95146.69;;;20.41;100.00
70745;BME280;59284;31.390;34.904;2022-11-21T02:27:30;95141.84;;;20.43;100.00
70745;BME280;59284;31.390;34.904;2022-11-21T02:29:56;95143.31;;;20.24;100.00
70745;BME280;59284;31.390;34.904;2022-11-21T02:32:24;95141.50;;;20.60;100.00
70745;BME280;59284;31.390;34.904;2022-11-21T02:34:51;95134.22;;;20.22;100.00
70745;BME280;59284;31.390;34.904;2022-11-21T02:37:17;95137.16;;;20.05;100.00
70745;BME280;59284;31.390;34.904;2022-11-21T02:39:43;95146.78;;;20.44;100.00
70745;BME280;59284;31.390;34.904;2022-11-21T02:45:14;95136.88;;;20.72;100.00
70745;BME280;59284;31.390;34.904;2022-11-21T02:47:44;95139.47;;;20.22;100.00
70745;BME280;59284;31.390;34.904;2022-11-21T02:50:16;95146.28;;;20.39;100.00
70745;BME280;59284;31.390;34.904;2022-11-21T02:52:47;95144.00;;;19.94;100.00
70745;BME280;59284;31.390;34.904;2022-11-21T02:55:12;95141.47;;;19.82;100.00
70745;BME280;59284;31.390;34.904;2022-11-21T02:57:40;95139.44;;;19.91;100.00
70745;BME280;59284;31.390;34.904;2022-11-21T03:00:07;95144.38;;;20.08;100.00
70745;BME280;59284;31.390;34.904;2022-11-21T03:02:34;95148.13;;;19.91;100.00
70745;BME280;59284;31.390;34.904;2022-11-21T03:05:00;95146.38;;;20.26;100.00
70745;BME280;59284;31.390;34.904;2022-11-21T03:07:27;95149.91;;;20.03;100.00
70745;BME280;59284;31.390;34.904;2022-11-21T03:09:52;95137.59;;;19.91;100.00
70745;BME280;59284;31.390;34.904;2022-11-21T03:12:18;95141.91;;;19.99;100.00
70745;BME280;59284;31.390;34.904;2022-11-21T03:14:44;95140.81;;;20.00;100.00
70745;BME280;59284;31.390;34.904;2022-11-21T03:17:10;95143.34;;;19.97;100.00
70745;BME280;59284;31.390;34.904;2022-11-21T03:19:36;95134.19;;;19.91;100.00
70745;BME280;59284;31.390;34.904;2022-11-21T03:22:02;95139.81;;;20.05;100.00
70745;BME280;59284;31.390;34.904;2022-11-21T03:24:28;95147.00;;;19.92;100.00
70745;BME280;59284;31.390;34.904;2022-11-21T03:26:53;95140.47;;;20.02;100.00
70745;BME280;59284;31.390;34.904;2022-11-21T03:29:19;95138.97;;;20.16;100.00
70745;BME280;59284;31.390;34.904;2022-11-21T03:31:45;95151.78;;;20.02;100.00
70745;BME280;59284;31.390;34.904;2022-11-21T03:34:10;95141.25;;;20.02;100.00
70745;BME280;59284;31.390;34.904;2022-11-21T03:36:36;95148.03;;;20.03;100.00
70745;BME280;59284;31.390;34.904;2022-11-21T03:39:03;95147.91;;;20.27;100.00
70745;BME280;59284;31.390;34.904;2022-11-21T03:41:28;95145.91;;;20.09;100.00
70745;BME280;59284;31.390;34.904;2022-11-21T03:44:03;95154.19;;;20.39;100.00
70745;BME280;59284;31.390;34.904;2022-11-21T03:46:31;95152.38;;;20.43;100.00
70745;BME280;59284;31.390;34.904;2022-11-21T03:48:58;95149.88;;;20.31;100.00
70745;BME280;59284;31.390;34.904;2022-11-21T03:51:24;95152.97;;;20.20;100.00
70745;BME280;59284;31.390;34.904;2022-11-21T03:53:50;95147.53;;;20.13;100.00
70745;BME280;59284;31.390;34.904;2022-11-21T03:56:16;95146.25;;;20.54;100.00
70745;BME280;59284;31.390;34.904;2022-11-21T03:58:42;95145.84;;;20.37;100.00
70745;BME280;59284;31.390;34.904;2022-11-21T04:01:08;95168.19;;;20.43;100.00
70745;BME280;59284;31.390;34.904;2022-11-21T04:03:34;95163.78;;;20.31;100.00
70745;BME280;59284;31.390;34.904;2022-11-21T04:05:59;95163.00;;;20.62;100.00
70745;BME280;59284;31.390;34.904;2022-11-21T04:08:26;95159.13;;;20.56;100.00
70745;BME280;59284;31.390;34.904;2022-11-21T04:10:53;95158.47;;;20.78;100.00
70745;BME280;59284;31.390;34.904;2022-11-21T04:13:19;95153.88;;;20.75;100.00
70745;BME280;59284;31.390;34.904;2022-11-21T04:15:46;95162.50;;;20.72;100.00
70745;BME280;59284;31.390;34.904;2022-11-21T04:18:12;95165.38;;;20.67;100.00
70745;BME280;59284;31.390;34.904;2022-11-21T04:20:38;95160.00;;;20.79;100.00
70745;BME280;59284;31.390;34.904;2022-11-21T04:23:04;95167.31;;;20.85;100.00
70745;BME280;59284;31.390;34.904;2022-11-21T04:25:31;95155.16;;;20.81;100.00
70745;BME280;59284;31.390;34.904;2022-11-21T04:27:57;95175.59;;;21.03;100.00
70745;BME280;59284;31.390;34.904;2022-11-21T04:30:24;95168.13;;;21.05;100.00
70745;BME280;59284;31.390;34.904;2022-11-21T04:32:53;95170.69;;;21.36;100.00
70745;BME280;59284;31.390;34.904;2022-11-21T04:35:20;95171.41;;;21.02;100.00
70745;BME280;59284;31.390;34.904;2022-11-21T04:37:46;95164.91;;;20.96;100.00
70745;BME280;59284;31.390;34.904;2022-11-21T04:40:12;95174.75;;;21.15;100.00
70745;BME280;59284;31.390;34.904;2022-11-21T04:42:46;95164.38;;;21.83;100.00
70745;BME280;59284;31.390;34.904;2022-11-21T04:45:13;95169.69;;;21.25;100.00
70745;BME280;59284;31.390;34.904;2022-11-21T04:47:41;95172.97;;;21.38;100.00
70745;BME280;59284;31.390;34.904;2022-11-21T04:50:09;95168.31;;;21.31;100.00
70745;BME280;59284;31.390;34.904;2022-11-21T04:52:35;95161.84;;;21.48;100.00
70745;BME280;59284;31.390;34.904;2022-11-21T04:55:02;95158.22;;;21.37;100.00
70745;BME280;59284;31.390;34.904;2022-11-21T04:57:33;95152.91;;;21.52;100.00
70745;BME280;59284;31.390;34.904;2022-11-21T05:00:06;95159.69;;;21.34;100.00
70745;BME280;59284;31.390;34.904;2022-11-21T05:02:32;95154.88;;;21.21;100.00
70745;BME280;59284;31.390;34.904;2022-11-21T05:05:01;95141.72;;;22.01;100.00
70745;BME280;59284;31.390;34.904;2022-11-21T05:07:32;95143.94;;;21.99;100.00
70745;BME280;59284;31.390;34.904;2022-11-21T05:09:58;95154.81;;;21.55;100.00
70745;BME280;59284;31.390;34.904;2022-11-21T05:12:24;95161.19;;;21.74;100.00
70745;BME280;59284;31.390;34.904;2022-11-21T05:15:12;95164.19;;;22.36;100.00
70745;BME280;59284;31.390;34.904;2022-11-21T05:17:44;95164.97;;;22.14;100.00
70745;BME280;59284;31.390;34.904;2022-11-21T05:20:10;95162.38;;;22.18;100.00
70745;BME280;59284;31.390;34.904;2022-11-21T05:22:36;95175.31;;;22.23;100.00
70745;BME280;59284;31.390;34.904;2022-11-21T05:25:01;95169.72;;;22.05;100.00
70745;BME280;59284;31.390;34.904;2022-11-21T05:27:27;95170.78;;;22.23;100.00
70745;BME280;59284;31.390;34.904;2022-11-21T05:29:53;95172.44;;;22.31;100.00
70745;BME280;59284;31.390;34.904;2022-11-21T05:32:19;95169.59;;;22.66;100.00
70745;BME280;59284;31.390;34.904;2022-11-21T05:34:45;95168.13;;;22.69;100.00
70745;BME280;59284;31.390;34.904;2022-11-21T05:37:11;95175.59;;;22.63;100.00
70745;BME280;59284;31.390;34.904;2022-11-21T05:39:36;95179.06;;;22.67;100.00
70745;BME280;59284;31.390;34.904;2022-11-21T05:42:02;95180.31;;;22.99;100.00
70745;BME280;59284;31.390;34.904;2022-11-21T05:44:28;95181.72;;;22.93;100.00
70745;BME280;59284;31.390;34.904;2022-11-21T05:46:53;95186.81;;;23.05;100.00
70745;BME280;59284;31.390;34.904;2022-11-21T05:49:19;95183.13;;;23.40;100.00
70745;BME280;59284;31.390;34.904;2022-11-21T05:51:45;95181.03;;;23.56;100.00
70745;BME280;59284;31.390;34.904;2022-11-21T05:54:14;95183.25;;;24.20;100.00
70745;BME280;59284;31.390;34.904;2022-11-21T05:56:40;95181.94;;;24.04;100.00
70745;BME280;59284;31.390;34.904;2022-11-21T05:59:07;95184.63;;;24.44;100.00
70745;BME280;59284;31.390;34.904;2022-11-21T06:01:34;95189.31;;;24.17;100.00
70745;BME280;59284;31.390;34.904;2022-11-21T06:04:18;95192.41;;;24.26;100.00
70745;BME280;59284;31.390;34.904;2022-11-21T06:06:44;95197.94;;;24.55;100.00
70745;BME280;59284;31.390;34.904;2022-11-21T06:09:10;95195.66;;;24.97;100.00
70745;BME280;59284;31.390;34.904;2022-11-21T06:11:36;95205.94;;;25.05;100.00
70745;BME280;59284;31.390;34.904;2022-11-21T06:14:01;95197.56;;;25.79;100.00
70745;BME280;59284;31.390;34.904;2022-11-21T06:16:28;95179.25;;;24.84;100.00
70745;BME280;59284;31.390;34.904;2022-11-21T06:18:56;95186.22;;;25.78;100.00
70745;BME280;59284;31.390;34.904;2022-11-21T06:21:26;95176.97;;;25.48;100.00
70745;BME280;59284;31.390;34.904;2022-11-21T06:23:55;95187.84;;;26.64;100.00
70745;BME280;59284;31.390;34.904;2022-11-21T06:26:23;95185.22;;;26.43;100.00
70745;BME280;59284;31.390;34.904;2022-11-21T06:28:50;95182.91;;;26.31;100.00
70745;BME280;59284;31.390;34.904;2022-11-21T06:31:21;95181.00;;;26.35;100.00
70745;BME280;59284;31.390;34.904;2022-11-21T06:33:51;95184.81;;;26.41;100.00
70745;BME280;59284;31.390;34.904;2022-11-21T06:36:18;95181.06;;;26.77;100.00
70745;BME280;59284;31.390;34.904;2022-11-21T06:38:44;95181.38;;;26.37;100.00
70745;BME280;59284;31.390;34.904;2022-11-21T06:41:12;95184.81;;;26.48;100.00
70745;BME280;59284;31.390;34.904;2022-11-21T06:43:38;95193.97;;;26.54;100.00
70745;BME280;59284;31.390;34.904;2022-11-21T06:46:05;95192.03;;;26.58;100.00
70745;BME280;59284;31.390;34.904;2022-11-21T06:48:32;95190.50;;;26.64;100.00
70745;BME280;59284;31.390;34.904;2022-11-21T06:51:05;95197.31;;;26.16;100.00
70745;BME280;59284;31.390;34.904;2022-11-21T06:53:32;95197.41;;;26.86;100.00
70745;BME280;59284;31.390;34.904;2022-11-21T06:55:59;95204.91;;;27.44;100.00
70745;BME280;59284;31.390;34.904;2022-11-21T06:58:25;95204.25;;;26.77;100.00
70745;BME280;59284;31.390;34.904;2022-11-21T07:00:51;95200.41;;;26.71;100.00
70745;BME280;59284;31.390;34.904;2022-11-21T07:03:16;95206.09;;;26.69;100.00
70745;BME280;59284;31.390;34.904;2022-11-21T07:05:42;95214.75;;;26.03;100.00
70745;BME280;59284;31.390;34.904;2022-11-21T07:08:08;95204.25;;;26.84;100.00
70745;BME280;59284;31.390;34.904;2022-11-21T07:10:34;95202.59;;;27.50;100.00
70745;BME280;59284;31.390;34.904;2022-11-21T07:12:59;95201.09;;;27.35;100.00
70745;BME280;59284;31.390;34.904;2022-11-21T07:15:46;95204.94;;;27.37;100.00
70745;BME280;59284;31.390;34.904;2022-11-21T07:18:12;95210.84;;;27.83;100.00
70745;BME280;59284;31.390;34.904;2022-11-21T07:20:39;95200.03;;;26.69;100.00
70745;BME280;59284;31.390;34.904;2022-11-21T07:23:05;95205.66;;;27.31;100.00
70745;BME280;59284;31.390;34.904;2022-11-21T07:25:31;95201.09;;;27.45;100.00
70745;BME280;59284;31.390;34.904;2022-11-21T07:27:58;95207.88;;;28.40;100.00
70745;BME280;59284;31.390;34.904;2022-11-21T07:30:24;95197.69;;;27.41;100.00
70745;BME280;59284;31.390;34.904;2022-11-21T07:32:57;95199.78;;;28.50;100.00
70745;BME280;59284;31.390;34.904;2022-11-21T07:35:24;95186.53;;;27.71;100.00
70745;BME280;59284;31.390;34.904;2022-11-21T07:37:49;95192.00;;;28.74;100.00
70745;BME280;59284;31.390;34.904;2022-11-21T07:40:15;95184.50;;;28.62;100.00
70745;BME280;59284;31.390;34.904;2022-11-21T07:42:41;95187.47;;;29.11;100.00
70745;BME280;59284;31.390;34.904;2022-11-21T07:45:07;95186.78;;;28.60;100.00
70745;BME280;59284;31.390;34.904;2022-11-21T07:47:33;95193.88;;;29.88;100.00
70745;BME280;59284;31.390;34.904;2022-11-21T07:49:58;95172.97;;;31.30;100.00
70745;BME280;59284;31.390;34.904;2022-11-21T07:52:24;95176.75;;;31.91;100.00
70745;BME280;59284;31.390;34.904;2022-11-21T07:54:50;95181.31;;;31.55;100.00
70745;BME280;59284;31.390;34.904;2022-11-21T07:57:16;95180.50;;;33.55;100.00
70745;BME280;59284;31.390;34.904;2022-11-21T07:59:42;95185.59;;;33.08;100.00
70745;BME280;59284;31.390;34.904;2022-11-21T08:02:26;95171.66;;;34.46;100.00
70745;BME280;59284;31.390;34.904;2022-11-21T08:04:52;95174.16;;;35.12;100.00
70745;BME280;59284;31.390;34.904;2022-11-21T08:07:20;95185.47;;;33.69;100.00
70745;BME280;59284;31.390;34.904;2022-11-21T08:09:46;95177.25;;;33.02;100.00
70745;BME280;59284;31.390;34.904;2022-11-21T08:12:12;95175.34;;;34.65;100.00
70745;BME280;59284;31.390;34.904;2022-11-21T08:14:38;95174.97;;;34.00;100.00
70745;BME280;59284;31.390;34.904;2022-11-21T08:17:04;95157.56;;;34.29;100.00
70745;BME280;59284;31.390;34.904;2022-11-21T08:19:30;95152.66;;;35.21;100.00
70745;BME280;59284;31.390;34.904;2022-11-21T08:21:56;95162.63;;;34.27;100.00
70745;BME280;59284;31.390;34.904;2022-11-21T08:24:22;95153.72;;;35.67;100.00
70745;BME280;59284;31.390;34.904;2022-11-21T08:26:48;95150.22;;;35.58;100.00
70745;BME280;59284;31.390;34.904;2022-11-21T08:29:14;95160.41;;;34.85;100.00
70745;BME280;59284;31.390;34.904;2022-11-21T08:31:40;95158.97;;;35.27;100.00
70745;BME280;59284;31.390;34.904;2022-11-21T08:34:06;95155.34;;;33.04;100.00
70745;BME280;59284;31.390;34.904;2022-11-21T08:36:32;95147.41;;;35.92;100.00
70745;BME280;59284;31.390;34.904;2022-11-21T08:38:58;95145.31;;;35.44;100.00
70745;BME280;59284;31.390;34.904;2022-11-21T08:41:24;95141.72;;;36.88;100.00
70745;BME280;59284;31.390;34.904;2022-11-21T08:44:08;95138.50;;;34.11;100.00
70745;BME280;59284;31.390;34.904;2022-11-21T08:46:34;95128.59;;;36.59;100.00
70745;BME280;59284;31.390;34.904;2022-11-21T08:49:02;95141.06;;;34.40;100.00
70745;BME280;59284;31.390;34.904;2022-11-21T08:51:28;95122.94;;;38.64;100.00
70745;BME280;59284;31.390;34.904;2022-11-21T08:53:54;95127.03;;;38.03;99.57
70745;BME280;59284;31.390;34.904;2022-11-21T08:56:19;95125.53;;;36.39;100.00
70745;BME280;59284;31.390;34.904;2022-11-21T08:58:45;95110.50;;;35.89;100.00
70745;BME280;59284;31.390;34.904;2022-11-21T09:01:10;95115.66;;;38.79;97.52
70745;BME280;59284;31.390;34.904;2022-11-21T09:03:36;95104.22;;;35.40;100.00
70745;BME280;59284;31.390;34.904;2022-11-21T09:06:02;95115.59;;;38.32;98.42
70745;BME280;59284;31.390;34.904;2022-11-21T09:08:28;95103.72;;;37.00;100.00
70745;BME280;59284;31.390;34.904;2022-11-21T09:10:54;95114.13;;;38.78;96.62
70745;BME280;59284;31.390;34.904;2022-11-21T09:13:20;95101.25;;;35.68;100.00
70745;BME280;59284;31.390;34.904;2022-11-21T09:15:46;95104.53;;;35.20;100.00
70745;BME280;59284;31.390;34.904;2022-11-21T09:18:30;95081.34;;;38.20;97.47
70745;BME280;59284;31.390;34.904;2022-11-21T09:20:56;95092.56;;;38.84;93.47
70745;BME280;59284;31.390;34.904;2022-11-21T09:23:21;95093.47;;;37.32;93.34
70745;BME280;59284;31.390;34.904;2022-11-21T09:25:47;95091.25;;;32.41;100.00
70745;BME280;59284;31.390;34.904;2022-11-21T09:28:13;95075.88;;;37.54;95.77
70745;BME280;59284;31.390;34.904;2022-11-21T09:30:39;95070.41;;;35.04;100.00
70745;BME280;59284;31.390;34.904;2022-11-21T09:33:13;95074.13;;;33.38;100.00
70745;BME280;59284;31.390;34.904;2022-11-21T09:35:41;95067.88;;;34.88;100.00
70745;BME280;59284;31.390;34.904;2022-11-21T09:38:06;95074.59;;;34.37;100.00
70745;BME280;59284;31.390;34.904;2022-11-21T09:40:33;95075.31;;;36.69;100.00
70745;BME280;59284;31.390;34.904;2022-11-21T09:46:14;95064.06;;;36.03;97.54
70745;BME280;59284;31.390;34.904;2022-11-21T09:48:51;95065.09;;;34.79;100.00
70745;BME280;59284;31.390;34.904;2022-11-21T09:51:21;95065.00;;;36.18;100.00
70745;BME280;59284;31.390;34.904;2022-11-21T09:54:03;95067.78;;;36.82;99.43
70745;BME280;59284;31.390;34.904;2022-11-21T09:56:36;95078.28;;;34.77;100.00
70745;BME280;59284;31.390;34.904;2022-11-21T10:01:47;95056.09;;;38.99;92.42
70745;BME280;59284;31.390;34.904;2022-11-21T10:04:13;95044.38;;;38.31;92.46
70745;BME280;59284;31.390;34.904;2022-11-21T10:07:06;95048.56;;;37.85;95.80
70745;BME280;59284;31.390;34.904;2022-11-21T10:12:30;95048.16;;;35.44;98.37
70745;BME280;59284;31.390;34.904;2022-11-21T10:15:17;95038.66;;;39.29;89.64
70745;BME280;59284;31.390;34.904;2022-11-21T10:18:03;95027.66;;;36.17;94.72
70745;BME280;59284;31.390;34.904;2022-11-21T10:26:23;95021.72;;;38.43;88.88
70745;BME280;59284;31.390;34.904;2022-11-21T10:31:45;95007.41;;;40.18;85.22
70745;BME280;59284;31.390;34.904;2022-11-21T10:34:18;95012.03;;;40.73;82.56
70745;BME280;59284;31.390;34.904;2022-11-21T10:36:56;95014.94;;;36.63;90.04
70745;BME280;59284;31.390;34.904;2022-11-21T10:42:14;95009.00;;;41.73;79.97
70745;BME280;59284;31.390;34.904;2022-11-21T10:44:41;95008.19;;;36.76;93.46
70745;BME280;59284;31.390;34.904;2022-11-21T10:47:32;95000.81;;;37.97;85.90
70745;BME280;59284;31.390;34.904;2022-11-21T10:52:52;95000.22;;;39.51;86.85
70745;BME280;59284;31.390;34.904;2022-11-21T10:55:24;94999.03;;;35.49;89.39
70745;BME280;59284;31.390;34.904;2022-11-21T10:57:50;94991.09;;;40.58;81.83
70745;BME280;59284;31.390;34.904;2022-11-21T11:00:19;94993.63;;;35.49;90.49
70745;BME280;59284;31.390;34.904;2022-11-21T11:05:23;94986.50;;;35.24;94.68
70745;BME280;59284;31.390;34.904;2022-11-21T11:08:09;94991.41;;;33.92;100.00
70745;BME280;59284;31.390;34.904;2022-11-21T11:10:37;94990.91;;;36.65;93.95
70745;BME280;59284;31.390;34.904;2022-11-21T11:13:20;94985.41;;;38.03;90.28
70745;BME280;59284;31.390;34.904;2022-11-21T11:16:03;94988.84;;;42.55;78.18
70745;BME280;59284;31.390;34.904;2022-11-21T11:18:31;94980.38;;;36.94;87.07
70745;BME280;59284;31.390;34.904;2022-11-21T11:21:21;94978.44;;;36.94;87.61
70745;BME280;59284;31.390;34.904;2022-11-21T11:23:49;94973.59;;;38.77;85.65
70745;BME280;59284;31.390;34.904;2022-11-21T11:28:43;94979.03;;;41.73;77.17
70745;BME280;59284;31.390;34.904;2022-11-21T11:31:09;94970.28;;;42.06;75.50
70745;BME280;59284;31.390;34.904;2022-11-21T11:33:39;94979.38;;;38.46;80.84
70745;BME280;59284;31.390;34.904;2022-11-21T11:36:12;94963.78;;;40.47;77.41
70745;BME280;59284;31.390;34.904;2022-11-21T11:38:42;94967.22;;;39.09;81.52
70745;BME280;59284;31.390;34.904;2022-11-21T11:41:20;94969.22;;;36.01;89.19
70745;BME280;59284;31.390;34.904;2022-11-21T11:44:08;94973.84;;;43.04;75.64
70745;BME280;59284;31.390;34.904;2022-11-21T11:47:08;94971.31;;;42.84;74.05
70745;BME280;59284;31.390;34.904;2022-11-21T11:50:10;94975.59;;;42.96;71.29
70745;BME280;59284;31.390;34.904;2022-11-21T11:52:52;94970.78;;;43.96;70.81
70745;BME280;59284;31.390;34.904;2022-11-21T11:58:19;94958.44;;;43.46;71.26
70745;BME280;59284;31.390;34.904;2022-11-21T12:01:14;94965.16;;;43.50;69.61
70745;BME280;59284;31.390;34.904;2022-11-21T12:06:26;94963.84;;;37.52;83.05
70745;BME280;59284;31.390;34.904;2022-11-21T12:09:00;94963.03;;;34.25;90.69
70745;BME280;59284;31.390;34.904;2022-11-21T12:21:09;94947.66;;;44.03;69.05
70745;BME280;59284;31.390;34.904;2022-11-21T12:23:55;94948.16;;;44.02;70.18
70745;BME280;59284;31.390;34.904;2022-11-21T12:26:33;94944.84;;;39.78;71.94
70745;BME280;59284;31.390;34.904;2022-11-21T12:41:13;94944.22;;;41.57;72.62
70745;BME280;59284;31.390;34.904;2022-11-21T12:47:07;94937.78;;;38.34;76.03
70745;BME280;59284;31.390;34.904;2022-11-21T12:49:42;94925.94;;;40.24;74.84
70745;BME280;59284;31.390;34.904;2022-11-21T12:52:35;94921.84;;;39.93;74.79
70745;BME280;59284;31.390;34.904;2022-11-21T12:55:35;94918.44;;;39.44;77.43
70745;BME280;59284;31.390;34.904;2022-11-21T12:58:30;94928.88;;;42.72;70.74
70745;BME280;59284;31.390;34.904;2022-11-21T13:04:04;94922.91;;;43.79;68.12
70745;BME280;59284;31.390;34.904;2022-11-21T13:06:43;94914.97;;;43.59;68.84
70745;BME280;59284;31.390;34.904;2022-11-21T13:09:14;94920.16;;;42.62;68.92
70745;BME280;59284;31.390;34.904;2022-11-21T13:11:59;94917.47;;;41.19;70.76
70745;BME280;59284;31.390;34.904;2022-11-21T13:20:14;94912.47;;;37.43;77.51
70745;BME280;59284;31.390;34.904;2022-11-21T13:30:46;94918.78;;;40.72;74.10
70745;BME280;59284;31.390;34.904;2022-11-21T13:36:10;94908.31;;;36.63;80.26
70745;BME280;59284;31.390;34.904;2022-11-21T13:55:55;94916.69;;;38.15;76.81
70745;BME280;59284;31.390;34.904;2022-11-21T14:06:27;94924.25;;;36.16;81.47
70745;BME280;59284;31.390;34.904;2022-11-21T14:09:17;94927.53;;;36.29;83.51
70745;BME280;59284;31.390;34.904;2022-11-21T14:11:45;94922.59;;;36.10;84.45
70745;BME280;59284;31.390;34.904;2022-11-21T14:19:59;94916.97;;;34.11;90.86
70745;BME280;59284;31.390;34.904;2022-11-21T14:25:18;94931.34;;;32.94;95.80
70745;BME280;59284;31.390;34.904;2022-11-21T14:27:47;94928.78;;;32.49;99.83
70745;BME280;59284;31.390;34.904;2022-11-21T14:30:30;94932.56;;;32.07;100.00
70745;BME280;59284;31.390;34.904;2022-11-21T14:32:56;94931.72;;;31.78;100.00
70745;BME280;59284;31.390;34.904;2022-11-21T14:35:22;94940.63;;;31.43;100.00
70745;BME280;59284;31.390;34.904;2022-11-21T14:37:49;94941.06;;;31.05;100.00
70745;BME280;59284;31.390;34.904;2022-11-21T14:40:20;94934.13;;;31.08;100.00
70745;BME280;59284;31.390;34.904;2022-11-21T14:42:46;94931.81;;;30.28;100.00
70745;BME280;59284;31.390;34.904;2022-11-21T14:45:22;94927.97;;;30.52;100.00
70745;BME280;59284;31.390;34.904;2022-11-21T14:47:49;94934.81;;;30.33;100.00
70745;BME280;59284;31.390;34.904;2022-11-21T14:50:23;94935.00;;;30.23;100.00
70745;BME280;59284;31.390;34.904;2022-11-21T14:52:49;94941.53;;;29.99;100.00
70745;BME280;59284;31.390;34.904;2022-11-21T14:55:29;94936.31;;;29.92;100.00
70745;BME280;59284;31.390;34.904;2022-11-21T14:57:58;94946.34;;;29.84;100.00
70745;BME280;59284;31.390;34.904;2022-11-21T15:00:27;94934.97;;;29.80;100.00